createdAt,value
2023-04-08T00:00:02.790Z,0.00
2023-04-08T00:01:02.817Z,0.00
2023-04-08T00:02:02.889Z,0.00
2023-04-08T00:03:03.097Z,0.00
2023-04-08T00:04:02.958Z,0.00
2023-04-08T00:05:02.818Z,0.00
2023-04-08T00:06:02.727Z,0.00
2023-04-08T00:07:02.715Z,0.00
2023-04-08T00:08:02.704Z,0.00
2023-04-08T00:09:02.703Z,0.00
2023-04-08T00:10:02.684Z,0.00
2023-04-08T00:11:02.682Z,0.00
2023-04-08T00:12:02.663Z,0.00
2023-04-08T00:13:02.688Z,0.00
2023-04-08T00:14:02.660Z,0.00
2023-04-08T00:15:02.633Z,0.00
2023-04-08T00:16:02.620Z,0.00
2023-04-08T00:17:02.699Z,0.00
2023-04-08T00:18:02.656Z,0.00
2023-04-08T00:19:02.605Z,0.00
2023-04-08T00:20:02.594Z,0.00
2023-04-08T00:21:02.580Z,0.00
2023-04-08T00:22:02.556Z,0.00
2023-04-08T00:23:02.549Z,0.00
2023-04-08T00:24:02.534Z,0.00
2023-04-08T00:25:02.538Z,0.00
2023-04-08T00:26:02.512Z,0.00
2023-04-08T00:27:02.503Z,0.00
2023-04-08T00:28:02.492Z,0.00
2023-04-08T00:29:02.495Z,0.00
2023-04-08T00:30:02.482Z,0.00
2023-04-08T00:31:02.499Z,0.00
2023-04-08T00:32:02.478Z,0.00
2023-04-08T00:33:02.519Z,0.00
2023-04-08T00:34:02.450Z,0.00
2023-04-08T00:35:02.439Z,0.00
2023-04-08T00:36:02.442Z,0.00
2023-04-08T00:37:02.394Z,0.00
2023-04-08T00:38:02.383Z,0.00
2023-04-08T00:39:02.394Z,0.00
2023-04-08T00:40:02.361Z,0.00
2023-04-08T00:41:02.355Z,0.00
2023-04-08T00:42:02.339Z,0.00
2023-04-08T00:43:02.331Z,0.00
2023-04-08T00:44:02.323Z,0.00
2023-04-08T00:45:02.326Z,0.00
2023-04-08T00:46:02.358Z,0.00
2023-04-08T00:47:02.290Z,0.00
2023-04-08T00:48:02.339Z,0.00
2023-04-08T00:49:02.306Z,0.00
2023-04-08T00:50:02.259Z,0.00
2023-04-08T00:51:02.254Z,0.00
2023-04-08T00:52:02.282Z,0.00
2023-04-08T00:53:02.222Z,0.00
2023-04-08T00:54:02.225Z,0.00
2023-04-08T00:55:02.214Z,0.00
2023-04-08T00:56:02.192Z,0.00
2023-04-08T00:57:02.188Z,0.00
2023-04-08T00:58:02.171Z,0.00
2023-04-08T00:59:02.175Z,0.00
2023-04-08T01:00:02.205Z,0.00
2023-04-08T01:01:02.218Z,0.00
2023-04-08T01:02:02.257Z,0.00
2023-04-08T01:03:02.242Z,0.00
2023-04-08T01:04:02.254Z,0.00
2023-04-08T01:05:02.122Z,0.00
2023-04-08T01:06:02.082Z,0.00
2023-04-08T01:07:02.075Z,0.00
2023-04-08T01:08:02.081Z,0.00
2023-04-08T01:09:02.080Z,0.00
2023-04-08T01:10:02.042Z,0.00
2023-04-08T01:11:02.029Z,0.00
2023-04-08T01:12:02.051Z,0.00
2023-04-08T01:13:02.017Z,0.00
2023-04-08T01:14:02.058Z,0.00
2023-04-08T01:15:01.991Z,0.00
2023-04-08T01:16:02.048Z,0.00
2023-04-08T01:17:01.970Z,0.00
2023-04-08T01:18:02.022Z,0.00
2023-04-08T01:19:01.972Z,0.00
2023-04-08T01:20:01.973Z,0.00
2023-04-08T01:21:01.946Z,0.00
2023-04-08T01:22:01.915Z,0.00
2023-04-08T01:23:01.943Z,0.00
2023-04-08T01:24:01.909Z,0.00
2023-04-08T01:25:01.889Z,0.00
2023-04-08T01:26:01.872Z,0.00
2023-04-08T01:27:01.868Z,0.00
2023-04-08T01:28:01.875Z,0.00
2023-04-08T01:29:01.858Z,0.00
2023-04-08T01:30:01.827Z,0.00
2023-04-08T01:31:01.847Z,0.00
2023-04-08T01:32:01.804Z,0.00
2023-04-08T01:33:01.925Z,0.00
2023-04-08T01:34:01.864Z,0.00
2023-04-08T01:35:01.784Z,0.00
2023-04-08T01:36:01.780Z,0.00
2023-04-08T01:37:01.775Z,0.00
2023-04-08T01:38:01.760Z,0.00
2023-04-08T01:39:01.764Z,0.00
2023-04-08T01:40:01.783Z,0.00
2023-04-08T01:41:01.710Z,0.00
2023-04-08T01:42:01.734Z,0.00
2023-04-08T01:43:01.690Z,0.00
2023-04-08T01:44:01.676Z,0.00
2023-04-08T01:45:01.676Z,0.00
2023-04-08T01:46:01.660Z,0.00
2023-04-08T01:47:01.744Z,0.00
2023-04-08T01:48:01.720Z,0.00
2023-04-08T01:49:01.724Z,0.00
2023-04-08T01:50:01.697Z,0.00
2023-04-08T01:51:01.606Z,0.00
2023-04-08T01:52:01.620Z,0.00
2023-04-08T01:53:01.606Z,0.00
2023-04-08T01:54:01.613Z,0.00
2023-04-08T01:55:01.582Z,0.00
2023-04-08T01:56:01.556Z,0.00
2023-04-08T01:57:01.553Z,0.00
2023-04-08T01:58:01.604Z,0.00
2023-04-08T01:59:01.545Z,0.00
2023-04-08T02:00:01.517Z,0.00
2023-04-08T02:01:01.510Z,0.00
2023-04-08T02:02:01.645Z,0.00
2023-04-08T02:03:01.739Z,0.00
2023-04-08T02:04:01.562Z,0.00
2023-04-08T02:05:01.477Z,0.00
2023-04-08T02:06:01.451Z,0.00
2023-04-08T02:07:01.524Z,0.00
2023-04-08T02:08:01.433Z,0.00
2023-04-08T02:09:01.485Z,0.00
2023-04-08T02:10:01.402Z,0.00
2023-04-08T02:11:01.397Z,0.00
2023-04-08T02:12:01.408Z,0.00
2023-04-08T02:13:01.372Z,0.00
2023-04-08T02:14:01.397Z,0.00
2023-04-08T02:15:01.353Z,0.00
2023-04-08T02:16:01.454Z,0.00
2023-04-08T02:17:01.327Z,0.00
2023-04-08T02:18:01.360Z,0.00
2023-04-08T02:19:01.328Z,0.00
2023-04-08T02:20:01.300Z,0.00
2023-04-08T02:21:01.287Z,0.00
2023-04-08T02:22:01.272Z,0.00
2023-04-08T02:23:01.262Z,0.00
2023-04-08T02:24:02.693Z,0.00
2023-04-08T02:25:01.314Z,0.00
2023-04-08T02:26:01.229Z,0.00
2023-04-08T02:27:01.222Z,0.00
2023-04-08T02:28:01.213Z,0.00
2023-04-08T02:29:01.219Z,0.00
2023-04-08T02:30:01.184Z,0.00
2023-04-08T02:31:01.180Z,0.00
2023-04-08T02:32:01.231Z,0.00
2023-04-08T02:33:01.214Z,0.00
2023-04-08T02:34:01.169Z,0.00
2023-04-08T02:35:01.135Z,0.00
2023-04-08T02:36:01.188Z,0.00
2023-04-08T02:37:01.123Z,0.00
2023-04-08T02:38:01.116Z,0.00
2023-04-08T02:39:01.111Z,0.00
2023-04-08T02:40:01.078Z,0.00
2023-04-08T02:41:01.126Z,0.00
2023-04-08T02:42:01.082Z,0.00
2023-04-08T02:43:01.059Z,0.00
2023-04-08T02:44:01.036Z,0.00
2023-04-08T02:45:01.028Z,0.00
2023-04-08T02:46:01.066Z,0.00
2023-04-08T02:47:01.005Z,0.00
2023-04-08T02:48:01.070Z,0.00
2023-04-08T02:49:00.982Z,0.00
2023-04-08T02:50:00.975Z,0.00
2023-04-08T02:51:00.978Z,0.00
2023-04-08T02:52:00.949Z,0.00
2023-04-08T02:53:00.941Z,0.00
2023-04-08T02:54:00.930Z,0.00
2023-04-08T02:55:00.918Z,0.00
2023-04-08T02:56:00.950Z,0.00
2023-04-08T02:57:00.921Z,0.00
2023-04-08T02:58:00.885Z,0.00
2023-04-08T02:59:00.928Z,0.00
2023-04-08T03:00:00.887Z,0.00
2023-04-08T03:01:00.899Z,0.00
2023-04-08T03:02:00.910Z,0.00
2023-04-08T03:03:01.019Z,0.00
2023-04-08T03:04:00.829Z,0.00
2023-04-08T03:05:00.821Z,0.00
2023-04-08T03:06:00.821Z,0.00
2023-04-08T03:07:00.801Z,0.00
2023-04-08T03:08:00.803Z,0.00
2023-04-08T03:09:00.783Z,0.00
2023-04-08T03:10:00.769Z,0.00
2023-04-08T03:11:00.769Z,0.00
2023-04-08T03:12:00.743Z,0.00
2023-04-08T03:13:00.742Z,0.00
2023-04-08T03:14:00.712Z,0.00
2023-04-08T03:15:00.747Z,0.00
2023-04-08T03:16:00.693Z,0.00
2023-04-08T03:17:00.820Z,0.00
2023-04-08T03:18:00.764Z,0.00
2023-04-08T03:19:00.745Z,0.00
2023-04-08T03:20:00.654Z,0.00
2023-04-08T03:21:00.643Z,0.00
2023-04-08T03:22:00.627Z,0.00
2023-04-08T03:23:00.629Z,0.00
2023-04-08T03:24:00.610Z,0.00
2023-04-08T03:25:00.639Z,0.00
2023-04-08T03:26:00.617Z,0.00
2023-04-08T03:27:00.612Z,0.00
2023-04-08T03:28:00.567Z,0.00
2023-04-08T03:29:00.590Z,0.00
2023-04-08T03:30:00.561Z,0.00
2023-04-08T03:31:00.533Z,0.00
2023-04-08T03:32:00.551Z,0.00
2023-04-08T03:33:00.605Z,0.00
2023-04-08T03:34:00.520Z,0.00
2023-04-08T03:35:00.511Z,0.00
2023-04-08T03:36:00.502Z,0.00
2023-04-08T03:37:00.468Z,0.00
2023-04-08T03:38:00.456Z,0.00
2023-04-08T03:39:00.477Z,0.00
2023-04-08T03:40:00.440Z,0.00
2023-04-08T03:41:00.435Z,0.00
2023-04-08T03:42:00.416Z,0.00
2023-04-08T03:43:00.403Z,0.00
2023-04-08T03:44:00.418Z,0.00
2023-04-08T03:45:00.407Z,0.00
2023-04-08T03:46:00.391Z,0.00
2023-04-08T03:47:00.369Z,0.00
2023-04-08T03:48:00.384Z,0.00
2023-04-08T03:49:00.366Z,0.00
2023-04-08T03:50:00.335Z,0.00
2023-04-08T03:51:00.319Z,0.00
2023-04-08T03:52:00.304Z,0.00
2023-04-08T03:53:00.350Z,0.00
2023-04-08T03:54:00.300Z,0.00
2023-04-08T03:55:00.277Z,0.00
2023-04-08T03:56:00.270Z,0.00
2023-04-08T03:57:00.251Z,0.00
2023-04-08T03:58:00.241Z,0.00
2023-04-08T03:59:00.252Z,0.00
2023-04-08T04:00:00.262Z,0.00
2023-04-08T04:01:00.229Z,0.00
2023-04-08T04:02:00.275Z,0.00
2023-04-08T04:03:00.255Z,0.00
2023-04-08T04:04:00.349Z,0.00
2023-04-08T04:05:00.373Z,0.00
2023-04-08T04:06:00.171Z,0.00
2023-04-08T04:07:00.143Z,0.00
2023-04-08T04:08:00.134Z,0.00
2023-04-08T04:09:00.123Z,4.00
2023-04-08T04:10:00.178Z,4.00
2023-04-08T04:11:00.115Z,0.00
2023-04-08T04:12:00.112Z,4.00
2023-04-08T04:13:00.113Z,0.00
2023-04-08T04:14:00.107Z,4.00
2023-04-08T04:15:00.107Z,4.00
2023-04-08T04:16:00.086Z,4.00
2023-04-08T04:17:00.090Z,4.00
2023-04-08T04:18:00.077Z,8.00
2023-04-08T04:19:00.293Z,4.00
2023-04-08T04:20:00.005Z,8.00
2023-04-08T04:20:59.994Z,8.00
2023-04-08T04:21:59.983Z,8.00
2023-04-08T04:22:59.976Z,12.00
2023-04-08T04:23:59.978Z,16.00
2023-04-08T04:24:59.954Z,16.00
2023-04-08T04:25:59.941Z,16.00
2023-04-08T04:26:59.946Z,16.00
2023-04-08T04:27:59.920Z,16.00
2023-04-08T04:28:59.925Z,20.00
2023-04-08T04:29:59.937Z,24.00
2023-04-08T04:30:59.921Z,28.00
2023-04-08T04:31:59.877Z,32.00
2023-04-08T04:32:59.931Z,32.00
2023-04-08T04:33:59.857Z,36.00
2023-04-08T04:34:59.871Z,32.00
2023-04-08T04:35:59.870Z,36.00
2023-04-08T04:36:59.824Z,44.00
2023-04-08T04:37:59.811Z,40.00
2023-04-08T04:38:59.819Z,44.00
2023-04-08T04:39:59.805Z,48.00
2023-04-08T04:40:59.780Z,52.00
2023-04-08T04:41:59.769Z,56.00
2023-04-08T04:42:59.762Z,60.00
2023-04-08T04:43:59.749Z,64.00
2023-04-08T04:44:59.784Z,60.00
2023-04-08T04:45:59.768Z,60.00
2023-04-08T04:46:59.716Z,64.00
2023-04-08T04:47:59.768Z,72.00
2023-04-08T04:48:59.822Z,80.00
2023-04-08T04:49:59.684Z,84.00
2023-04-08T04:50:59.670Z,84.00
2023-04-08T04:51:59.668Z,88.00
2023-04-08T04:52:59.648Z,96.00
2023-04-08T04:53:59.657Z,88.00
2023-04-08T04:54:59.626Z,80.00
2023-04-08T04:55:59.627Z,76.00
2023-04-08T04:56:59.606Z,84.00
2023-04-08T04:57:59.603Z,96.00
2023-04-08T04:58:59.591Z,96.00
2023-04-08T04:59:59.584Z,100.00
2023-04-08T05:00:59.577Z,108.00
2023-04-08T05:01:59.689Z,100.00
2023-04-08T05:02:59.728Z,100.00
2023-04-08T05:03:59.551Z,104.00
2023-04-08T05:04:59.635Z,116.00
2023-04-08T05:05:59.516Z,108.00
2023-04-08T05:06:59.509Z,124.00
2023-04-08T05:07:59.494Z,148.00
2023-04-08T05:08:59.506Z,144.00
2023-04-08T05:09:59.475Z,136.00
2023-04-08T05:10:59.468Z,140.00
2023-04-08T05:11:59.457Z,148.00
2023-04-08T05:12:59.441Z,156.00
2023-04-08T05:13:59.478Z,156.00
2023-04-08T05:14:59.433Z,156.00
2023-04-08T05:15:59.497Z,168.00
2023-04-08T05:16:59.399Z,172.00
2023-04-08T05:17:59.435Z,184.00
2023-04-08T05:18:59.392Z,192.00
2023-04-08T05:19:59.373Z,196.00
2023-04-08T05:20:59.379Z,204.00
2023-04-08T05:21:59.356Z,224.00
2023-04-08T05:22:59.347Z,220.00
2023-04-08T05:23:59.392Z,216.00
2023-04-08T05:24:59.314Z,220.00
2023-04-08T05:25:59.309Z,236.00
2023-04-08T05:26:59.297Z,244.00
2023-04-08T05:27:59.292Z,264.00
2023-04-08T05:28:59.284Z,288.00
2023-04-08T05:29:59.263Z,380.00
2023-04-08T05:30:59.277Z,428.00
2023-04-08T05:31:59.244Z,456.00
2023-04-08T05:33:00.585Z,492.00
2023-04-08T05:33:59.246Z,520.00
2023-04-08T05:34:59.207Z,480.00
2023-04-08T05:35:59.280Z,480.00
2023-04-08T05:36:59.209Z,528.00
2023-04-08T05:37:59.198Z,568.00
2023-04-08T05:39:00.037Z,692.00
2023-04-08T05:39:59.158Z,748.00
2023-04-08T05:40:59.149Z,652.00
2023-04-08T05:41:59.154Z,580.00
2023-04-08T05:42:59.120Z,556.00
2023-04-08T05:43:59.128Z,544.00
2023-04-08T05:44:59.125Z,540.00
2023-04-08T05:45:59.105Z,528.00
2023-04-08T05:46:59.212Z,556.00
2023-04-08T05:47:59.122Z,652.00
2023-04-08T05:48:59.078Z,660.00
2023-04-08T05:49:59.056Z,636.00
2023-04-08T05:50:59.036Z,636.00
2023-04-08T05:51:59.028Z,604.00
2023-04-08T05:52:59.043Z,600.00
2023-04-08T05:53:59.008Z,632.00
2023-04-08T05:54:59.029Z,620.00
2023-04-08T05:55:58.988Z,648.00
2023-04-08T05:56:58.970Z,900.00
2023-04-08T05:57:58.958Z,1048.00
2023-04-08T05:58:58.947Z,988.00
2023-04-08T05:59:58.949Z,912.00
2023-04-08T06:00:58.927Z,856.00
2023-04-08T06:01:59.020Z,948.00
2023-04-08T06:02:59.154Z,944.00
2023-04-08T06:03:59.082Z,1000.00
2023-04-08T06:04:58.951Z,1044.00
2023-04-08T06:05:58.885Z,1084.00
2023-04-08T06:06:58.863Z,1052.00
2023-04-08T06:07:58.847Z,1032.00
2023-04-08T06:08:58.858Z,1032.00
2023-04-08T06:09:58.836Z,1100.00
2023-04-08T06:10:58.830Z,1152.00
2023-04-08T06:11:58.800Z,1064.00
2023-04-08T06:12:58.793Z,1020.00
2023-04-08T06:13:58.778Z,1124.00
2023-04-08T06:14:58.785Z,1228.00
2023-04-08T06:15:58.761Z,1416.00
2023-04-08T06:16:58.817Z,1552.00
2023-04-08T06:17:58.752Z,1792.00
2023-04-08T06:18:58.721Z,1816.00
2023-04-08T06:19:58.744Z,1784.00
2023-04-08T06:20:58.699Z,1936.00
2023-04-08T06:21:58.711Z,1896.00
2023-04-08T06:22:58.693Z,1744.00
2023-04-08T06:23:58.671Z,1548.00
2023-04-08T06:24:58.686Z,1528.00
2023-04-08T06:25:58.658Z,1876.00
2023-04-08T06:26:58.634Z,2008.00
2023-04-08T06:27:58.640Z,1824.00
2023-04-08T06:28:58.630Z,1828.00
2023-04-08T06:29:58.604Z,1928.00
2023-04-08T06:30:58.596Z,1796.00
2023-04-08T06:31:58.874Z,1688.00
2023-04-08T06:32:58.622Z,1772.00
2023-04-08T06:33:58.599Z,1808.00
2023-04-08T06:34:58.565Z,1656.00
2023-04-08T06:35:58.569Z,1856.00
2023-04-08T06:36:58.530Z,1740.00
2023-04-08T06:37:58.518Z,1856.00
2023-04-08T06:38:58.510Z,1948.00
2023-04-08T06:39:58.528Z,1872.00
2023-04-08T06:40:58.510Z,1760.00
2023-04-08T06:41:58.480Z,2312.00
2023-04-08T06:42:58.465Z,2692.00
2023-04-08T06:43:58.453Z,3280.00
2023-04-08T06:44:58.634Z,2596.00
2023-04-08T06:45:58.486Z,2656.00
2023-04-08T06:46:58.420Z,2364.00
2023-04-08T06:47:58.439Z,2252.00
2023-04-08T06:48:58.402Z,2404.00
2023-04-08T06:49:58.402Z,2036.00
2023-04-08T06:50:58.412Z,1900.00
2023-04-08T06:51:58.367Z,2036.00
2023-04-08T06:52:58.372Z,2188.00
2023-04-08T06:53:58.348Z,2024.00
2023-04-08T06:54:58.353Z,1748.00
2023-04-08T06:55:58.326Z,1828.00
2023-04-08T06:56:58.429Z,1800.00
2023-04-08T06:57:58.302Z,1780.00
2023-04-08T06:58:58.295Z,1696.00
2023-04-08T06:59:58.296Z,1988.00
2023-04-08T07:00:58.295Z,2292.00
2023-04-08T07:01:58.462Z,2132.00
2023-04-08T07:02:58.306Z,1960.00
2023-04-08T07:03:58.249Z,1768.00
2023-04-08T07:04:58.247Z,1880.00
2023-04-08T07:05:58.217Z,2200.00
2023-04-08T07:06:58.206Z,2300.00
2023-04-08T07:07:58.198Z,2580.00
2023-04-08T07:08:58.194Z,2508.00
2023-04-08T07:09:58.185Z,2656.00
2023-04-08T07:10:58.166Z,2656.00
2023-04-08T07:11:58.542Z,2496.00
2023-04-08T07:12:58.169Z,2540.00
2023-04-08T07:13:58.137Z,2324.00
2023-04-08T07:14:58.328Z,2108.00
2023-04-08T07:15:58.114Z,2248.00
2023-04-08T07:16:58.127Z,3212.00
2023-04-08T07:17:58.129Z,3560.00
2023-04-08T07:18:58.081Z,3020.00
2023-04-08T07:19:58.114Z,2828.00
2023-04-08T07:20:58.068Z,2508.00
2023-04-08T07:21:58.050Z,2568.00
2023-04-08T07:22:58.041Z,2508.00
2023-04-08T07:23:58.026Z,2440.00
2023-04-08T07:24:58.038Z,2724.00
2023-04-08T07:25:58.006Z,3056.00
2023-04-08T07:26:57.993Z,3752.00
2023-04-08T07:27:57.986Z,4272.00
2023-04-08T07:28:58.011Z,3880.00
2023-04-08T07:29:57.965Z,3656.00
2023-04-08T07:30:57.970Z,3868.00
2023-04-08T07:31:57.943Z,3504.00
2023-04-08T07:33:00.462Z,3280.00
2023-04-08T07:33:57.921Z,3264.00
2023-04-08T07:34:57.921Z,2928.00
2023-04-08T07:35:57.927Z,2908.00
2023-04-08T07:36:57.885Z,2688.00
2023-04-08T07:37:57.924Z,2428.00
2023-04-08T07:38:57.896Z,1992.00
2023-04-08T07:39:57.864Z,1984.00
2023-04-08T07:40:57.838Z,1908.00
2023-04-08T07:41:57.834Z,1492.00
2023-04-08T07:42:57.825Z,1308.00
2023-04-08T07:43:57.866Z,1368.00
2023-04-08T07:44:57.824Z,1408.00
2023-04-08T07:45:57.796Z,2124.00
2023-04-08T07:46:57.776Z,2604.00
2023-04-08T07:47:57.865Z,2076.00
2023-04-08T07:48:57.780Z,1832.00
2023-04-08T07:49:57.743Z,2104.00
2023-04-08T07:51:09.400Z,2152.00
2023-04-08T07:51:58.718Z,1604.00
2023-04-08T07:52:57.708Z,1536.00
2023-04-08T07:53:57.706Z,1672.00
2023-04-08T07:54:57.684Z,1752.00
2023-04-08T07:55:57.844Z,1972.00
2023-04-08T07:56:57.666Z,2656.00
2023-04-08T07:57:57.653Z,2568.00
2023-04-08T07:58:57.833Z,2200.00
2023-04-08T07:59:57.633Z,2156.00
2023-04-08T08:00:57.649Z,2208.00
2023-04-08T08:01:57.640Z,2476.00
2023-04-08T08:02:57.680Z,2604.00
2023-04-08T08:03:58.202Z,2552.00
2023-04-08T08:04:57.616Z,2396.00
2023-04-08T08:05:57.593Z,2328.00
2023-04-08T08:06:57.591Z,2152.00
2023-04-08T08:07:57.544Z,2120.00
2023-04-08T08:08:57.593Z,2272.00
2023-04-08T08:09:57.529Z,2564.00
2023-04-08T08:10:57.532Z,2768.00
2023-04-08T08:11:57.536Z,2612.00
2023-04-08T08:12:57.499Z,2768.00
2023-04-08T08:13:57.478Z,3076.00
2023-04-08T08:14:57.471Z,2632.00
2023-04-08T08:15:57.534Z,2312.00
2023-04-08T08:16:57.464Z,2420.00
2023-04-08T08:17:57.445Z,2616.00
2023-04-08T08:18:57.442Z,2876.00
2023-04-08T08:19:57.414Z,2740.00
2023-04-08T08:20:57.420Z,3072.00
2023-04-08T08:22:05.467Z,3376.00
2023-04-08T08:22:57.980Z,3336.00
2023-04-08T08:23:57.387Z,3156.00
2023-04-08T08:24:57.371Z,2772.00
2023-04-08T08:25:57.351Z,2632.00
2023-04-08T08:26:57.339Z,2632.00
2023-04-08T08:27:57.338Z,2728.00
2023-04-08T08:28:57.348Z,2356.00
2023-04-08T08:29:57.307Z,2412.00
2023-04-08T08:30:57.413Z,2044.00
2023-04-08T08:31:57.287Z,2032.00
2023-04-08T08:32:57.362Z,2156.00
2023-04-08T08:33:57.278Z,2296.00
2023-04-08T08:34:57.254Z,1800.00
2023-04-08T08:35:57.257Z,1720.00
2023-04-08T08:36:57.236Z,1928.00
2023-04-08T08:37:57.232Z,2356.00
2023-04-08T08:38:57.223Z,2412.00
2023-04-08T08:39:57.262Z,2384.00
2023-04-08T08:40:57.201Z,2652.00
2023-04-08T08:41:57.182Z,2128.00
2023-04-08T08:42:57.177Z,2036.00
2023-04-08T08:43:57.154Z,2144.00
2023-04-08T08:44:57.146Z,2444.00
2023-04-08T08:45:57.134Z,2680.00
2023-04-08T08:46:57.225Z,2448.00
2023-04-08T08:47:57.188Z,2344.00
2023-04-08T08:48:57.122Z,2424.00
2023-04-08T08:49:57.087Z,2132.00
2023-04-08T08:50:57.087Z,1860.00
2023-04-08T08:51:57.067Z,2080.00
2023-04-08T08:52:57.066Z,2708.00
2023-04-08T08:53:57.058Z,3020.00
2023-04-08T08:54:57.032Z,4024.00
2023-04-08T08:56:13.633Z,5212.00
2023-04-08T08:56:58.009Z,5992.00
2023-04-08T08:57:57.013Z,8188.00
2023-04-08T08:58:56.987Z,13196.00
2023-04-08T08:59:56.995Z,13604.00
2023-04-08T09:00:56.967Z,12748.00
2023-04-08T09:01:57.060Z,13488.00
2023-04-08T09:02:57.295Z,11336.00
2023-04-08T09:03:57.059Z,9636.00
2023-04-08T09:04:57.192Z,7264.00
2023-04-08T09:05:56.921Z,5428.00
2023-04-08T09:06:56.905Z,4532.00
2023-04-08T09:07:56.907Z,3924.00
2023-04-08T09:08:56.886Z,3048.00
2023-04-08T09:09:56.868Z,2604.00
2023-04-08T09:10:56.861Z,2012.00
2023-04-08T09:11:56.846Z,1756.00
2023-04-08T09:12:56.853Z,1620.00
2023-04-08T09:13:56.827Z,1688.00
2023-04-08T09:14:56.814Z,1696.00
2023-04-08T09:15:56.850Z,1664.00
2023-04-08T09:16:56.797Z,1564.00
2023-04-08T09:17:56.828Z,1644.00
2023-04-08T09:18:56.804Z,1752.00
2023-04-08T09:19:56.760Z,1748.00
2023-04-08T09:20:56.798Z,1676.00
2023-04-08T09:21:56.741Z,1656.00
2023-04-08T09:22:56.785Z,1680.00
2023-04-08T09:23:56.741Z,1828.00
2023-04-08T09:24:56.749Z,1932.00
2023-04-08T09:25:56.741Z,1952.00
2023-04-08T09:26:56.729Z,1912.00
2023-04-08T09:27:56.672Z,2040.00
2023-04-08T09:28:56.688Z,2052.00
2023-04-08T09:29:56.662Z,1912.00
2023-04-08T09:30:56.654Z,1944.00
2023-04-08T09:31:56.873Z,2268.00
2023-04-08T09:32:56.699Z,2320.00
2023-04-08T09:33:56.628Z,2096.00
2023-04-08T09:34:56.601Z,1904.00
2023-04-08T09:35:56.620Z,1844.00
2023-04-08T09:36:56.858Z,1816.00
2023-04-08T09:37:56.572Z,1800.00
2023-04-08T09:38:56.571Z,1892.00
2023-04-08T09:39:56.552Z,2056.00
2023-04-08T09:40:56.542Z,2352.00
2023-04-08T09:41:56.527Z,2436.00
2023-04-08T09:42:56.515Z,2124.00
2023-04-08T09:43:56.546Z,2016.00
2023-04-08T09:44:56.502Z,1896.00
2023-04-08T09:45:56.524Z,1824.00
2023-04-08T09:46:56.471Z,1768.00
2023-04-08T09:47:56.536Z,1804.00
2023-04-08T09:48:56.479Z,1948.00
2023-04-08T09:49:56.531Z,2004.00
2023-04-08T09:50:56.426Z,2044.00
2023-04-08T09:51:56.415Z,2188.00
2023-04-08T09:52:56.431Z,2300.00
2023-04-08T09:53:56.434Z,2448.00
2023-04-08T09:54:56.400Z,2760.00
2023-04-08T09:55:56.370Z,3388.00
2023-04-08T09:56:56.375Z,3724.00
2023-04-08T09:57:56.351Z,3864.00
2023-04-08T09:58:56.385Z,4384.00
2023-04-08T09:59:56.358Z,4732.00
2023-04-08T10:00:56.349Z,5596.00
2023-04-08T10:01:56.360Z,6728.00
2023-04-08T10:02:56.656Z,8324.00
2023-04-08T10:03:56.358Z,11112.00
2023-04-08T10:04:56.340Z,18816.00
2023-04-08T10:05:56.270Z,67648.00
2023-04-08T10:06:56.259Z,42624.00
2023-04-08T10:07:56.260Z,68992.00
2023-04-08T10:08:56.295Z,70496.00
2023-04-08T10:09:56.231Z,44096.00
2023-04-08T10:10:56.269Z,27264.00
2023-04-08T10:11:56.202Z,15556.00
2023-04-08T10:12:56.191Z,21216.00
2023-04-08T10:13:56.196Z,7784.00
2023-04-08T10:14:56.173Z,5912.00
2023-04-08T10:15:56.160Z,5048.00
2023-04-08T10:16:56.172Z,3948.00
2023-04-08T10:17:56.182Z,2980.00
2023-04-08T10:18:56.138Z,2688.00
2023-04-08T10:19:56.126Z,2552.00
2023-04-08T10:20:56.110Z,2728.00
2023-04-08T10:21:56.090Z,3068.00
2023-04-08T10:22:56.116Z,3476.00
2023-04-08T10:23:56.092Z,4092.00
2023-04-08T10:24:56.081Z,5324.00
2023-04-08T10:25:56.059Z,7060.00
2023-04-08T10:26:56.037Z,15480.00
2023-04-08T10:27:56.022Z,7088.00
2023-04-08T10:28:56.028Z,7912.00
2023-04-08T10:29:56.001Z,6848.00
2023-04-08T10:30:56.010Z,5784.00
2023-04-08T10:31:56.026Z,4240.00
2023-04-08T10:32:56.043Z,3608.00
2023-04-08T10:33:55.997Z,3452.00
2023-04-08T10:34:55.950Z,3228.00
2023-04-08T10:35:55.988Z,3260.00
2023-04-08T10:36:55.928Z,3324.00
2023-04-08T10:37:55.914Z,3308.00
2023-04-08T10:38:55.925Z,3500.00
2023-04-08T10:39:55.891Z,3784.00
2023-04-08T10:40:55.904Z,4272.00
2023-04-08T10:41:55.871Z,4776.00
2023-04-08T10:42:55.865Z,5040.00
2023-04-08T10:43:55.862Z,5448.00
2023-04-08T10:44:55.838Z,6472.00
2023-04-08T10:45:55.880Z,7088.00
2023-04-08T10:46:55.881Z,6428.00
2023-04-08T10:47:55.831Z,5844.00
2023-04-08T10:48:55.816Z,5504.00
2023-04-08T10:49:55.785Z,3964.00
2023-04-08T10:50:55.775Z,3512.00
2023-04-08T10:51:55.759Z,3280.00
2023-04-08T10:52:55.748Z,3288.00
2023-04-08T10:53:55.750Z,3480.00
2023-04-08T10:54:55.728Z,3572.00
2023-04-08T10:55:55.717Z,3488.00
2023-04-08T10:56:55.732Z,3544.00
2023-04-08T10:57:57.721Z,3240.00
2023-04-08T10:58:55.697Z,3164.00
2023-04-08T10:59:55.673Z,2824.00
2023-04-08T11:00:55.696Z,2588.00
2023-04-08T11:01:55.757Z,2380.00
2023-04-08T11:02:55.752Z,2292.00
2023-04-08T11:03:56.059Z,2448.00
2023-04-08T11:04:55.619Z,2936.00
2023-04-08T11:05:55.613Z,3656.00
2023-04-08T11:06:55.601Z,4104.00
2023-04-08T11:07:55.592Z,3832.00
2023-04-08T11:08:55.651Z,3448.00
2023-04-08T11:09:55.566Z,3488.00
2023-04-08T11:10:55.555Z,3848.00
2023-04-08T11:11:55.543Z,4640.00
2023-04-08T11:12:55.574Z,4320.00
2023-04-08T11:13:55.870Z,4940.00
2023-04-08T11:14:55.512Z,5800.00
2023-04-08T11:15:55.552Z,6792.00
2023-04-08T11:16:55.517Z,7352.00
2023-04-08T11:17:55.496Z,7268.00
2023-04-08T11:18:55.491Z,6948.00
2023-04-08T11:19:55.460Z,7348.00
2023-04-08T11:20:55.700Z,6060.00
2023-04-08T11:21:55.437Z,5284.00
2023-04-08T11:22:55.429Z,5428.00
2023-04-08T11:23:55.434Z,5052.00
2023-04-08T11:24:55.411Z,3612.00
2023-04-08T11:25:55.404Z,2664.00
2023-04-08T11:26:55.385Z,2540.00
2023-04-08T11:27:55.473Z,2520.00
2023-04-08T11:28:55.401Z,2588.00
2023-04-08T11:29:55.348Z,2696.00
2023-04-08T11:30:55.367Z,2968.00
2023-04-08T11:31:55.329Z,3136.00
2023-04-08T11:32:55.417Z,2872.00
2023-04-08T11:33:55.456Z,2536.00
2023-04-08T11:34:55.301Z,2368.00
2023-04-08T11:35:55.335Z,2312.00
2023-04-08T11:36:55.274Z,2356.00
2023-04-08T11:37:55.313Z,2584.00
2023-04-08T11:38:55.274Z,2760.00
2023-04-08T11:39:55.241Z,2912.00
2023-04-08T11:40:55.234Z,2808.00
2023-04-08T11:41:55.277Z,2832.00
2023-04-08T11:42:55.210Z,3076.00
2023-04-08T11:43:55.250Z,3496.00
2023-04-08T11:44:55.205Z,3784.00
2023-04-08T11:45:55.197Z,3888.00
2023-04-08T11:46:55.262Z,4224.00
2023-04-08T11:47:55.202Z,4700.00
2023-04-08T11:48:55.167Z,4864.00
2023-04-08T11:49:55.126Z,5224.00
2023-04-08T11:50:55.120Z,5236.00
2023-04-08T11:51:55.116Z,5752.00
2023-04-08T11:52:55.096Z,5880.00
2023-04-08T11:53:56.337Z,6376.00
2023-04-08T11:54:55.087Z,6436.00
2023-04-08T11:55:55.062Z,7032.00
2023-04-08T11:56:55.050Z,7084.00
2023-04-08T11:57:55.071Z,6880.00
2023-04-08T11:58:55.033Z,7004.00
2023-04-08T11:59:55.022Z,7004.00
2023-04-08T12:00:55.036Z,6964.00
2023-04-08T12:01:55.015Z,6960.00
2023-04-08T12:02:55.107Z,7432.00
2023-04-08T12:03:55.374Z,7248.00
2023-04-08T12:04:54.992Z,7144.00
2023-04-08T12:05:54.961Z,6740.00
2023-04-08T12:06:56.964Z,6364.00
2023-04-08T12:07:54.942Z,6480.00
2023-04-08T12:08:54.933Z,6348.00
2023-04-08T12:09:54.915Z,6580.00
2023-04-08T12:10:54.897Z,6564.00
2023-04-08T12:11:54.893Z,7488.00
2023-04-08T12:12:54.910Z,7088.00
2023-04-08T12:13:54.871Z,6836.00
2023-04-08T12:14:54.876Z,6620.00
2023-04-08T12:15:54.853Z,6392.00
2023-04-08T12:16:54.942Z,6124.00
2023-04-08T12:17:55.014Z,6440.00
2023-04-08T12:18:54.826Z,7176.00
2023-04-08T12:19:54.800Z,7204.00
2023-04-08T12:20:54.801Z,6412.00
2023-04-08T12:21:54.778Z,5988.00
2023-04-08T12:22:54.787Z,6720.00
2023-04-08T12:23:54.758Z,7568.00
2023-04-08T12:24:54.754Z,7788.00
2023-04-08T12:25:54.765Z,7748.00
2023-04-08T12:26:54.742Z,7520.00
2023-04-08T12:27:54.744Z,7464.00
2023-04-08T12:28:54.717Z,7184.00
2023-04-08T12:29:54.697Z,7060.00
2023-04-08T12:30:54.689Z,6416.00
2023-04-08T12:31:54.794Z,6176.00
2023-04-08T12:32:54.804Z,5912.00